Time;durP1;ratioP1;P1;durP2;ratioP2;P2;SDS_P1;SDS_P2;PMS_P1;PMS_P2;Temp;Humidity;BMP_temperature;BMP_pressure;BME280_temperature;BME280_humidity;BME280_pressure;Samples;Min_cycle;Max_cycle;Signal;HPM_P1;HPM_P2
2023/04/15 00:02:00;;;;;;;12.38;5.95;;;4.10;99.90;;;;;;5038727;28;20353;-63
2023/04/15 00:04:27;;;;;;;10.95;5.75;;;3.90;99.90;;;;;;5057192;28;20095;-63
2023/04/15 00:06:53;;;;;;;12.20;5.72;;;3.90;99.90;;;;;;5053742;28;20033;-64
2023/04/15 00:09:20;;;;;;;13.90;5.80;;;3.90;99.90;;;;;;5067893;28;20396;-64
2023/04/15 00:11:45;;;;;;;15.65;6.38;;;3.90;99.90;;;;;;5053891;28;20029;-63
2023/04/15 00:14:12;;;;;;;13.88;6.35;;;4.00;99.90;;;;;;5048974;28;20040;-63
2023/04/15 00:16:38;;;;;;;15.82;5.97;;;4.10;99.90;;;;;;5065438;28;20083;-63
2023/04/15 00:19:04;;;;;;;12.43;6.43;;;4.10;99.90;;;;;;5048546;28;20504;-62
2023/04/15 00:21:30;;;;;;;13.80;5.88;;;4.10;99.90;;;;;;5036775;28;20025;-64
2023/04/15 00:23:56;;;;;;;14.48;5.78;;;4.00;99.90;;;;;;5050676;28;20090;-63
2023/04/15 00:26:21;;;;;;;11.75;6.30;;;4.10;99.90;;;;;;5031299;28;20029;-63
2023/04/15 00:28:47;;;;;;;12.60;5.63;;;4.10;99.90;;;;;;5055044;28;20044;-64
2023/04/15 00:31:14;;;;;;;13.32;6.43;;;4.00;99.90;;;;;;5046420;28;20025;-64
2023/04/15 00:33:40;;;;;;;12.50;6.15;;;3.90;99.90;;;;;;5064197;28;20081;-65
2023/04/15 00:36:06;;;;;;;12.02;6.25;;;3.90;99.90;;;;;;5034219;28;20033;-64
2023/04/15 00:38:32;;;;;;;13.20;5.80;;;3.90;99.90;;;;;;5050712;28;20098;-64
2023/04/15 00:40:58;;;;;;;14.73;6.30;;;3.80;99.90;;;;;;5046302;28;20036;-63
2023/04/15 00:43:25;;;;;;;13.00;5.57;;;3.90;99.90;;;;;;5047671;28;20485;-65
2023/04/15 00:45:53;;;;;;;10.82;5.50;;;3.90;99.90;;;;;;5039322;28;20032;-63
2023/04/15 00:48:19;;;;;;;11.55;6.05;;;3.80;99.90;;;;;;5041840;28;20037;-64
2023/04/15 00:50:45;;;;;;;11.05;5.60;;;3.80;99.90;;;;;;5044611;28;20139;-63
2023/04/15 00:53:11;;;;;;;12.10;5.90;;;3.70;99.90;;;;;;5047332;28;20116;-67
2023/04/15 00:55:37;;;;;;;11.82;5.78;;;3.70;99.90;;;;;;5050262;28;20064;-63
2023/04/15 00:58:02;;;;;;;13.55;5.90;;;3.70;99.90;;;;;;5047900;28;20094;-64
2023/04/15 01:00:29;;;;;;;13.15;5.97;;;3.70;99.90;;;;;;5057142;28;20040;-64
2023/04/15 01:02:54;;;;;;;13.82;5.95;;;3.70;99.90;;;;;;5041994;28;20044;-63
2023/04/15 01:05:20;;;;;;;13.32;6.28;;;3.70;99.90;;;;;;5066057;28;20029;-64
2023/04/15 01:07:47;;;;;;;14.63;6.00;;;3.70;99.90;;;;;;5064999;28;20086;-63
2023/04/15 01:10:13;;;;;;;13.18;5.68;;;3.70;99.90;;;;;;5064913;28;20480;-66
2023/04/15 01:12:39;;;;;;;11.73;5.57;;;3.70;99.90;;;;;;5053120;28;20029;-64
2023/04/15 01:15:05;;;;;;;10.93;5.45;;;3.70;99.90;;;;;;5065619;28;20054;-64
2023/04/15 01:17:31;;;;;;;13.77;5.68;;;3.70;99.90;;;;;;5052913;28;20069;-64
2023/04/15 01:19:57;;;;;;;10.55;5.93;;;3.60;99.90;;;;;;5055605;28;20029;-63
2023/04/15 01:22:25;;;;;;;15.88;5.90;;;3.50;99.90;;;;;;5046758;28;20029;-63
2023/04/15 01:25:13;;;;;;;13.63;6.32;;;3.50;99.90;;;;;;5038766;28;20025;-63
2023/04/15 01:27:41;;;;;;;13.50;5.20;;;3.50;99.90;;;;;;5043396;28;20084;-63
2023/04/15 01:30:07;;;;;;;11.32;5.72;;;3.40;99.90;;;;;;5053663;28;20397;-63
2023/04/15 01:32:33;;;;;;;13.15;5.75;;;3.40;99.90;;;;;;5056703;28;20035;-63
2023/04/15 01:34:59;;;;;;;12.23;4.55;;;3.30;99.90;;;;;;5046756;28;20029;-64
2023/04/15 01:37:25;;;;;;;9.65;4.72;;;3.30;99.90;;;;;;5034693;28;20052;-63
2023/04/15 01:39:51;;;;;;;10.18;5.22;;;3.20;99.90;;;;;;5045063;28;20091;-64
2023/04/15 01:42:16;;;;;;;10.52;4.68;;;3.20;99.90;;;;;;5042688;28;20072;-64
2023/04/15 01:44:42;;;;;;;10.35;4.60;;;3.10;99.90;;;;;;5032993;28;20029;-65
2023/04/15 01:47:08;;;;;;;9.38;4.22;;;3.10;99.90;;;;;;5053271;28;20040;-64
2023/04/15 01:49:33;;;;;;;11.77;5.00;;;3.10;99.90;;;;;;5035329;28;20108;-63
2023/04/15 01:51:59;;;;;;;10.95;4.90;;;3.10;99.90;;;;;;5045515;28;20665;-63
2023/04/15 01:54:26;;;;;;;11.32;5.15;;;3.00;99.90;;;;;;5028793;28;20434;-64
2023/04/15 01:56:52;;;;;;;14.32;5.07;;;3.00;99.90;;;;;;5062618;28;20031;-63
2023/04/15 01:59:17;;;;;;;9.43;4.60;;;3.00;99.90;;;;;;5054170;28;20041;-64
2023/04/15 02:01:44;;;;;;;10.48;5.15;;;3.00;99.90;;;;;;5047773;28;20037;-63
2023/04/15 02:04:15;;;;;;;11.70;5.10;;;3.00;99.90;;;;;;5054417;28;20044;-64
2023/04/15 02:06:44;;;;;;;10.60;5.43;;;3.10;99.90;;;;;;5061076;28;20116;-63
2023/04/15 02:09:10;;;;;;;9.90;4.68;;;3.10;99.90;;;;;;5042497;28;20406;-64
2023/04/15 02:11:36;;;;;;;11.93;5.15;;;3.10;99.90;;;;;;5049094;28;20020;-63
2023/04/15 02:14:05;;;;;;;13.38;5.40;;;3.10;99.90;;;;;;5047093;28;20094;-64
2023/04/15 02:16:31;;;;;;;14.45;6.43;;;3.10;99.90;;;;;;5046871;28;20434;-64
2023/04/15 02:18:57;;;;;;;12.98;5.55;;;3.20;99.90;;;;;;5053709;28;20515;-63
2023/04/15 02:21:22;;;;;;;12.52;5.63;;;3.20;99.90;;;;;;5036997;28;20112;-64
2023/04/15 02:23:48;;;;;;;13.90;5.32;;;3.20;99.90;;;;;;5043064;28;20116;-63
2023/04/15 02:26:14;;;;;;;12.00;5.60;;;3.20;99.90;;;;;;5057214;28;20036;-66
2023/04/15 02:28:39;;;;;;;10.75;5.38;;;3.20;99.90;;;;;;5054315;28;20032;-63
2023/04/15 02:31:06;;;;;;;12.27;5.15;;;3.20;99.90;;;;;;5055962;28;20462;-63
2023/04/15 02:33:32;;;;;;;8.77;4.70;;;3.20;99.90;;;;;;5050577;28;20112;-62
2023/04/15 02:35:58;;;;;;;10.93;4.82;;;3.20;99.90;;;;;;5055971;28;20025;-64
2023/04/15 02:38:24;;;;;;;11.98;6.00;;;3.20;99.90;;;;;;5052984;28;20059;-64
2023/04/15 02:40:50;;;;;;;9.88;4.88;;;3.20;99.90;;;;;;5061547;28;20029;-65
2023/04/15 02:43:16;;;;;;;12.88;5.07;;;3.30;99.90;;;;;;5035788;28;20032;-66
2023/04/15 02:45:42;;;;;;;8.73;4.63;;;3.20;99.90;;;;;;5053564;28;20036;-62
2023/04/15 02:48:08;;;;;;;12.00;5.75;;;3.10;99.90;;;;;;5048309;28;20028;-63
2023/04/15 02:50:34;;;;;;;10.38;5.10;;;2.90;99.90;;;;;;5065876;28;20033;-64
2023/04/15 02:53:01;;;;;;;13.48;5.75;;;2.90;99.90;;;;;;5068264;28;20401;-64
2023/04/15 02:55:27;;;;;;;11.32;5.10;;;2.80;99.90;;;;;;5047416;28;20036;-63
2023/04/15 02:57:53;;;;;;;13.68;4.97;;;2.70;99.90;;;;;;5055073;28;20123;-64
2023/04/15 03:00:19;;;;;;;10.95;4.63;;;2.70;99.90;;;;;;5066816;28;20135;-67
2023/04/15 03:02:45;;;;;;;12.40;5.70;;;2.70;99.90;;;;;;5047187;28;20048;-65
2023/04/15 03:05:12;;;;;;;11.02;4.65;;;2.80;99.90;;;;;;5043386;28;20496;-63
2023/04/15 03:07:39;;;;;;;15.23;5.40;;;2.80;99.90;;;;;;5065924;28;20043;-65
2023/04/15 03:10:06;;;;;;;9.55;5.07;;;2.90;99.90;;;;;;5048638;28;20405;-63
2023/04/15 03:12:32;;;;;;;9.73;4.55;;;2.90;99.90;;;;;;5029532;28;20025;-64
2023/04/15 03:14:57;;;;;;;9.57;4.85;;;2.90;99.90;;;;;;5049779;28;20033;-65
2023/04/15 03:17:23;;;;;;;10.07;5.15;;;2.90;99.90;;;;;;5047071;28;20036;-63
2023/04/15 03:19:49;;;;;;;8.77;4.38;;;2.90;99.90;;;;;;5058551;28;20036;-64
2023/04/15 03:22:14;;;;;;;9.60;4.68;;;3.00;99.90;;;;;;5049731;28;20037;-64
2023/04/15 03:24:40;;;;;;;12.55;5.13;;;3.00;99.90;;;;;;5047534;28;20025;-66
2023/04/15 03:27:06;;;;;;;10.88;5.07;;;3.00;99.90;;;;;;5044114;28;20036;-63
2023/04/15 03:29:32;;;;;;;11.95;4.88;;;3.00;99.90;;;;;;5048681;28;20062;-64
2023/04/15 03:31:58;;;;;;;10.13;4.65;;;3.10;99.90;;;;;;5045206;28;20065;-63
2023/04/15 03:34:23;;;;;;;8.73;4.80;;;3.10;99.90;;;;;;5055081;28;20264;-64
2023/04/15 03:36:49;;;;;;;8.80;4.57;;;3.00;99.90;;;;;;5051453;28;20033;-64
2023/04/15 03:39:15;;;;;;;10.27;4.43;;;3.00;99.90;;;;;;5055265;28;20044;-64
2023/04/15 03:41:41;;;;;;;8.57;4.40;;;3.00;99.90;;;;;;5041735;28;20067;-64
2023/04/15 03:44:06;;;;;;;12.07;4.80;;;3.00;99.90;;;;;;5052685;28;20039;-64
2023/04/15 03:46:32;;;;;;;13.75;5.03;;;3.00;99.90;;;;;;5041039;28;20037;-64
2023/04/15 03:48:58;;;;;;;8.40;4.32;;;3.00;99.90;;;;;;5052510;28;20036;-64
2023/04/15 03:51:23;;;;;;;12.55;5.15;;;3.00;99.90;;;;;;5046337;28;20092;-63
2023/04/15 03:53:49;;;;;;;11.05;5.20;;;3.10;99.90;;;;;;5040412;28;20770;-64
2023/04/15 03:56:15;;;;;;;10.80;5.40;;;3.20;99.90;;;;;;5043425;28;20032;-64
2023/04/15 03:58:40;;;;;;;13.48;5.10;;;3.20;99.90;;;;;;5043585;28;20028;-64
2023/04/15 04:01:06;;;;;;;10.48;4.47;;;3.20;99.90;;;;;;5057858;28;20094;-63
2023/04/15 04:03:32;;;;;;;10.55;4.78;;;3.20;99.90;;;;;;5041212;28;20044;-63
2023/04/15 04:05:58;;;;;;;11.20;5.50;;;3.10;99.90;;;;;;5029163;28;20458;-64
2023/04/15 04:08:23;;;;;;;12.73;4.80;;;3.00;99.90;;;;;;5041816;28;20029;-66
2023/04/15 04:10:49;;;;;;;11.90;5.78;;;3.00;99.90;;;;;;5039943;28;20106;-64
2023/04/15 04:13:15;;;;;;;12.13;6.18;;;3.00;99.90;;;;;;5045855;28;20087;-64
2023/04/15 04:15:40;;;;;;;12.05;5.40;;;3.00;99.90;;;;;;5056394;28;20161;-64
2023/04/15 04:18:06;;;;;;;11.27;5.00;;;3.00;99.90;;;;;;5037219;28;20453;-63
2023/04/15 04:20:32;;;;;;;10.07;4.75;;;3.10;99.90;;;;;;5035916;28;20120;-64
2023/04/15 04:22:58;;;;;;;11.73;5.22;;;3.10;99.90;;;;;;5051036;28;20032;-64
2023/04/15 04:25:24;;;;;;;13.95;5.05;;;3.00;99.90;;;;;;5048745;28;20743;-66
2023/04/15 04:27:50;;;;;;;11.88;5.70;;;3.00;99.90;;;;;;5037171;28;20029;-65
2023/04/15 04:30:15;;;;;;;11.02;5.70;;;3.00;99.90;;;;;;5032650;28;20454;-63
2023/04/15 04:32:41;;;;;;;10.65;5.40;;;2.90;99.90;;;;;;5062241;28;20025;-63
2023/04/15 04:35:07;;;;;;;10.38;5.50;;;2.90;99.90;;;;;;5034897;28;20071;-63
2023/04/15 04:37:33;;;;;;;12.00;5.80;;;2.90;99.90;;;;;;5052888;28;20049;-63
2023/04/15 04:39:58;;;;;;;11.35;5.25;;;3.00;99.90;;;;;;5049648;28;20033;-64
2023/04/15 04:42:24;;;;;;;12.38;5.78;;;3.00;99.90;;;;;;5060622;28;20036;-67
2023/04/15 04:44:50;;;;;;;12.00;5.55;;;3.00;99.90;;;;;;5037924;28;20038;-64
2023/04/15 04:47:15;;;;;;;12.85;5.53;;;3.00;99.90;;;;;;5048056;28;20108;-63
2023/04/15 04:49:41;;;;;;;10.15;5.18;;;3.00;99.90;;;;;;5046146;28;20098;-63
2023/04/15 04:52:07;;;;;;;11.10;5.10;;;3.00;99.90;;;;;;5052743;28;20060;-63
2023/04/15 04:54:32;;;;;;;10.30;5.03;;;3.00;99.90;;;;;;5035771;28;20048;-64
2023/04/15 04:56:58;;;;;;;12.10;5.35;;;3.00;99.90;;;;;;5031613;28;20037;-63
2023/04/15 04:59:24;;;;;;;9.75;5.05;;;3.00;99.90;;;;;;5035356;28;20477;-67
2023/04/15 05:01:50;;;;;;;11.88;5.57;;;3.00;99.90;;;;;;5044456;28;20035;-64
2023/04/15 05:04:16;;;;;;;11.25;4.97;;;3.10;99.90;;;;;;5036864;28;20378;-64
2023/04/15 05:06:41;;;;;;;9.40;4.70;;;3.20;99.90;;;;;;5040444;28;20104;-63
2023/04/15 05:09:07;;;;;;;12.93;5.53;;;3.20;99.90;;;;;;5047726;28;20526;-63
2023/04/15 05:11:32;;;;;;;10.43;5.35;;;3.30;99.90;;;;;;5053160;28;20444;-64
2023/04/15 05:14:01;;;;;;;9.50;4.65;;;3.40;99.90;;;;;;5058401;28;20033;-63
2023/04/15 05:16:27;;;;;;;13.45;4.85;;;3.40;99.90;;;;;;5050088;28;20030;-65
2023/04/15 05:18:52;;;;;;;11.00;5.30;;;3.20;99.90;;;;;;5057252;28;20052;-64
2023/04/15 05:21:19;;;;;;;13.10;5.45;;;3.10;99.90;;;;;;5049427;28;20437;-64
2023/04/15 05:23:44;;;;;;;10.70;5.65;;;2.90;99.90;;;;;;5041277;28;20090;-63
2023/04/15 05:26:10;;;;;;;10.27;4.80;;;2.90;99.90;;;;;;5052488;28;20116;-65
2023/04/15 05:28:36;;;;;;;17.65;5.18;;;3.00;99.90;;;;;;5030968;28;20040;-61
2023/04/15 05:31:01;;;;;;;10.70;5.28;;;3.00;99.90;;;;;;5049147;28;20048;-62
2023/04/15 05:33:27;;;;;;;11.50;5.20;;;3.10;99.90;;;;;;5048457;28;20104;-66
2023/04/15 05:35:53;;;;;;;12.05;4.95;;;3.30;99.90;;;;;;5051664;28;20376;-63
2023/04/15 05:38:18;;;;;;;11.73;5.03;;;3.50;99.90;;;;;;5040956;28;20043;-63
2023/04/15 05:40:44;;;;;;;11.00;4.97;;;3.60;99.90;;;;;;5035043;28;20119;-63
2023/04/15 05:43:10;;;;;;;11.52;5.07;;;3.70;99.90;;;;;;5050570;28;20388;-64
2023/04/15 05:45:35;;;;;;;15.80;5.78;;;3.90;99.90;;;;;;5044461;28;20025;-63
2023/04/15 05:48:01;;;;;;;10.98;5.10;;;4.10;99.90;;;;;;5049314;28;20044;-63
2023/04/15 05:50:27;;;;;;;14.82;5.95;;;4.10;99.90;;;;;;5046550;28;20032;-67
2023/04/15 05:52:52;;;;;;;11.85;5.43;;;4.00;99.90;;;;;;5052870;28;20115;-64
2023/04/15 05:55:18;;;;;;;14.00;5.03;;;4.10;99.90;;;;;;5053370;28;20496;-62
2023/04/15 05:57:44;;;;;;;13.43;5.82;;;4.10;99.90;;;;;;5047056;28;20105;-65
2023/04/15 06:00:10;;;;;;;11.80;6.15;;;4.10;99.90;;;;;;5058533;28;20044;-65
2023/04/15 06:02:36;;;;;;;12.57;5.90;;;4.20;99.90;;;;;;5060606;28;20059;-64
2023/04/15 06:05:02;;;;;;;12.73;6.13;;;4.30;99.90;;;;;;5071131;28;20028;-64
2023/04/15 06:07:28;;;;;;;14.32;5.95;;;4.30;99.90;;;;;;5070882;28;20058;-67
2023/04/15 06:09:54;;;;;;;16.40;5.97;;;4.40;99.90;;;;;;5065442;28;20029;-64
2023/04/15 06:12:19;;;;;;;16.83;6.53;;;4.50;99.90;;;;;;5051252;28;20389;-64
2023/04/15 06:14:45;;;;;;;16.60;6.38;;;4.50;99.90;;;;;;5049112;28;20033;-65
2023/04/15 06:17:13;;;;;;;13.60;6.10;;;4.60;99.90;;;;;;5054810;28;20163;-64
2023/04/15 06:19:39;;;;;;;12.23;5.75;;;4.60;99.90;;;;;;5053175;28;20501;-65
2023/04/15 06:22:06;;;;;;;15.38;5.68;;;4.70;99.90;;;;;;5055149;28;20039;-64
2023/04/15 06:24:32;;;;;;;16.20;6.60;;;4.70;99.90;;;;;;5047036;28;20033;-67
2023/04/15 06:26:57;;;;;;;14.45;5.63;;;4.80;99.90;;;;;;5050688;28;20040;-64
2023/04/15 06:29:23;;;;;;;13.38;5.90;;;4.80;99.90;;;;;;5050930;28;20034;-64
2023/04/15 06:31:48;;;;;;;15.90;6.07;;;4.80;99.90;;;;;;5051041;28;20048;-63
2023/04/15 06:34:14;;;;;;;14.05;6.00;;;4.90;99.90;;;;;;5039444;28;20044;-64
2023/04/15 06:36:40;;;;;;;15.52;6.10;;;4.90;99.90;;;;;;5051320;28;20031;-64
2023/04/15 06:39:05;;;;;;;15.35;6.45;;;5.00;99.90;;;;;;5049164;28;20037;-63
2023/04/15 06:41:31;;;;;;;14.15;6.45;;;5.00;99.90;;;;;;5060871;28;20029;-67
2023/04/15 06:43:57;;;;;;;15.43;6.22;;;5.00;99.90;;;;;;5054804;28;20754;-63
2023/04/15 06:46:23;;;;;;;16.60;6.25;;;5.10;99.90;;;;;;5055968;28;20031;-63
2023/04/15 06:48:48;;;;;;;14.45;6.00;;;5.20;99.90;;;;;;5049641;28;20035;-63
2023/04/15 06:51:14;;;;;;;13.35;5.78;;;5.30;99.90;;;;;;5040266;28;20058;-64
2023/04/15 06:53:41;;;;;;;14.13;5.57;;;5.40;99.90;;;;;;5049564;28;20037;-64
2023/04/15 06:56:08;;;;;;;19.08;5.85;;;5.40;99.90;;;;;;5046960;28;20448;-63
2023/04/15 06:58:34;;;;;;;13.70;5.47;;;5.40;99.90;;;;;;5049554;28;20047;-67
2023/04/15 07:01:00;;;;;;;12.43;5.60;;;5.50;99.90;;;;;;5046535;28;20085;-64
2023/04/15 07:03:26;;;;;;;17.25;5.53;;;5.60;99.90;;;;;;5062745;28;20078;-63
2023/04/15 07:05:51;;;;;;;14.93;6.35;;;5.60;99.90;;;;;;5049625;28;20020;-63
2023/04/15 07:08:17;;;;;;;16.35;6.10;;;5.70;99.90;;;;;;5050320;28;20033;-64
2023/04/15 07:10:43;;;;;;;11.75;5.38;;;5.70;99.90;;;;;;5047106;28;20059;-63
2023/04/15 07:13:09;;;;;;;16.30;4.93;;;5.70;99.90;;;;;;5066826;28;20055;-66
2023/04/15 07:15:35;;;;;;;9.88;5.18;;;5.80;99.90;;;;;;5053246;28;20055;-67
2023/04/15 07:18:00;;;;;;;11.50;5.40;;;5.90;99.90;;;;;;5058567;28;20366;-63
2023/04/15 07:20:26;;;;;;;15.73;5.00;;;5.90;99.90;;;;;;5060034;28;20102;-63
2023/04/15 07:22:52;;;;;;;12.68;5.13;;;5.90;99.90;;;;;;5047496;28;20499;-67
2023/04/15 07:25:18;;;;;;;10.63;5.00;;;5.90;99.90;;;;;;5046515;28;20473;-64
2023/04/15 07:27:44;;;;;;;16.70;5.55;;;6.00;99.90;;;;;;5048972;28;20091;-65
2023/04/15 07:30:11;;;;;;;11.73;4.82;;;6.10;99.90;;;;;;5052096;28;20048;-65
2023/04/15 07:32:37;;;;;;;14.65;5.20;;;6.10;99.90;;;;;;5051941;28;20113;-64
2023/04/15 07:35:03;;;;;;;12.57;4.90;;;6.30;99.90;;;;;;5045812;28;20115;-63
2023/04/15 07:37:28;;;;;;;19.15;5.13;;;6.40;99.90;;;;;;5049249;28;20032;-64
2023/04/15 07:39:54;;;;;;;17.13;5.70;;;6.50;99.90;;;;;;5048728;28;20584;-63
2023/04/15 07:42:21;;;;;;;16.92;5.68;;;6.50;99.90;;;;;;5048799;28;20060;-63
2023/04/15 07:44:46;;;;;;;14.77;5.20;;;6.60;99.90;;;;;;5046283;28;20037;-63
2023/04/15 07:47:12;;;;;;;14.73;5.30;;;6.70;99.90;;;;;;5034224;28;20032;-63
2023/04/15 07:49:38;;;;;;;15.70;5.13;;;6.70;99.90;;;;;;5048353;28;20416;-63
2023/04/15 07:52:03;;;;;;;13.25;5.47;;;6.70;99.90;;;;;;5042921;28;20104;-64
2023/04/15 07:54:29;;;;;;;13.27;4.32;;;6.80;99.90;;;;;;5048872;28;20457;-65
2023/04/15 07:56:55;;;;;;;14.13;4.70;;;6.90;99.90;;;;;;5048580;28;20501;-63
2023/04/15 07:59:21;;;;;;;15.15;4.97;;;7.00;99.90;;;;;;5049359;28;20037;-63
2023/04/15 08:01:47;;;;;;;13.02;5.68;;;7.00;99.90;;;;;;5048618;28;20483;-63
2023/04/15 08:04:13;;;;;;;13.90;5.60;;;7.10;99.90;;;;;;5047617;28;20474;-63
2023/04/15 08:06:39;;;;;;;17.48;5.45;;;7.20;99.90;;;;;;5041408;28;20033;-64
2023/04/15 08:09:07;;;;;;;13.68;5.38;;;7.30;99.90;;;;;;5050337;28;20045;-64
2023/04/15 08:11:32;;;;;;;13.13;5.20;;;7.50;99.90;;;;;;5048711;28;20144;-64
2023/04/15 08:13:58;;;;;;;10.60;4.65;;;7.60;99.90;;;;;;5048482;28;20112;-64
2023/04/15 08:16:26;;;;;;;14.15;4.50;;;7.70;99.90;;;;;;5049165;28;20033;-64
2023/04/15 08:18:54;;;;;;;13.32;4.95;;;7.90;99.90;;;;;;5048735;28;20044;-63
2023/04/15 08:21:20;;;;;;;17.35;5.00;;;7.90;99.90;;;;;;5046414;28;20033;-63
2023/04/15 08:23:49;;;;;;;13.68;5.05;;;8.10;99.90;;;;;;5048227;28;20390;-62
2023/04/15 08:26:15;;;;;;;13.15;4.75;;;8.20;99.90;;;;;;5048090;28;20040;-63
2023/04/15 08:28:41;;;;;;;14.48;5.15;;;8.30;99.90;;;;;;5046077;28;20056;-62
2023/04/15 08:31:08;;;;;;;11.10;4.80;;;8.40;99.90;;;;;;5045306;28;20029;-64
2023/04/15 08:33:33;;;;;;;10.70;4.32;;;8.60;99.90;;;;;;5044560;28;20476;-63
2023/04/15 08:35:59;;;;;;;12.95;4.90;;;8.60;99.90;;;;;;5045161;28;20029;-64
2023/04/15 08:38:25;;;;;;;11.32;5.25;;;8.60;99.90;;;;;;5047033;28;20440;-64
2023/04/15 08:40:51;;;;;;;12.20;4.97;;;8.70;99.90;;;;;;5047657;28;20040;-65
2023/04/15 08:43:27;;;;;;;12.57;4.85;;;8.80;99.90;;;;;;5043396;28;20032;-64
2023/04/15 08:45:54;;;;;;;12.95;4.70;;;8.80;99.90;;;;;;5046974;28;20033;-64
2023/04/15 08:48:21;;;;;;;12.98;4.82;;;8.80;99.90;;;;;;5047430;28;20029;-64
2023/04/15 08:50:47;;;;;;;10.60;5.00;;;8.90;99.90;;;;;;5051399;28;20052;-64
2023/04/15 08:53:14;;;;;;;10.15;4.78;;;8.90;99.90;;;;;;5065471;28;20040;-68
2023/04/15 08:55:45;;;;;;;14.73;4.50;;;8.90;99.90;;;;;;5041540;28;20578;-67
2023/04/15 08:58:12;;;;;;;;;;;9.00;99.90;;;;;;5041886;28;20040;-64
2023/04/15 09:00:38;;;;;;;16.25;4.85;;;9.00;99.90;;;;;;5044095;28;19943;-66
2023/04/15 09:03:07;;;;;;;12.13;4.63;;;9.10;99.90;;;;;;5038837;28;20453;-65
2023/04/15 09:05:34;;;;;;;11.18;4.95;;;9.30;99.90;;;;;;5043106;28;20056;-64
2023/04/15 09:08:01;;;;;;;13.10;4.63;;;9.40;99.90;;;;;;5032401;28;20922;-64
2023/04/15 09:10:30;;;;;;;12.05;4.85;;;9.50;99.90;;;;;;5035041;28;20033;-63
2023/04/15 09:12:56;;;;;;;9.93;4.45;;;9.70;99.90;;;;;;5039557;28;20071;-63
2023/04/15 09:15:26;;;;;;;13.73;5.00;;;9.90;99.90;;;;;;5042749;28;20549;-66
2023/04/15 09:17:52;;;;;;;11.63;4.55;;;10.00;99.90;;;;;;5044279;28;20035;-65
2023/04/15 09:20:18;;;;;;;10.63;4.40;;;10.10;99.90;;;;;;5045644;28;20025;-65
2023/04/15 09:22:46;;;;;;;11.85;4.35;;;10.30;99.90;;;;;;5042566;28;20778;-64
2023/04/15 09:25:15;;;;;;;7.82;3.70;;;10.50;99.90;;;;;;5046951;28;20069;-63
2023/04/15 09:27:51;;;;;;;8.43;3.88;;;10.80;99.90;;;;;;5045811;28;20061;-67
2023/04/15 09:30:17;;;;;;;8.20;4.30;;;11.00;99.90;;;;;;5047615;28;20086;-64
2023/04/15 09:32:53;;;;;;;15.15;4.68;;;11.30;99.90;;;;;;5048254;28;20028;-64
2023/04/15 09:35:21;;;;;;;9.63;4.43;;;11.50;99.90;;;;;;5048006;28;20477;-66
2023/04/15 09:37:47;;;;;;;14.45;4.97;;;11.70;99.90;;;;;;5048241;28;20036;-64
2023/04/15 09:40:13;;;;;;;8.93;4.28;;;11.80;99.90;;;;;;5042123;28;20511;-65
2023/04/15 09:42:55;;;;;;;9.15;4.47;;;11.90;99.90;;;;;;5049707;28;20021;-67
2023/04/15 09:45:21;;;;;;;9.85;4.80;;;12.00;99.90;;;;;;5041810;28;20029;-66
2023/04/15 09:47:47;;;;;;;8.98;4.60;;;12.00;99.90;;;;;;5050812;28;20044;-65
2023/04/15 09:50:13;;;;;;;12.07;4.93;;;12.20;99.90;;;;;;5051327;28;20033;-66
2023/04/15 09:52:43;;;;;;;10.48;4.35;;;12.30;99.90;;;;;;5045711;28;20099;-69
2023/04/15 09:55:10;;;;;;;11.53;4.50;;;12.40;99.90;;;;;;5038050;28;20468;-65
2023/04/15 09:57:37;;;;;;;8.10;4.22;;;12.50;99.90;;;;;;5047371;28;20086;-65
2023/04/15 10:00:07;;;;;;;9.57;4.25;;;12.70;99.90;;;;;;5048669;28;20021;-65
2023/04/15 10:02:34;;;;;;;10.63;4.82;;;12.90;99.90;;;;;;5046464;28;20064;-64
2023/04/15 10:05:01;;;;;;;12.13;5.60;;;13.00;99.90;;;;;;5045219;28;20037;-66
2023/04/15 10:07:27;;;;;;;10.20;4.88;;;13.10;99.90;;;;;;5045938;28;20119;-64
2023/04/15 10:09:53;;;;;;;8.73;4.90;;;13.10;99.90;;;;;;5048431;28;20159;-66
2023/04/15 10:12:20;;;;;;;7.47;4.63;;;13.10;99.90;;;;;;5046834;28;20047;-66
2023/04/15 10:14:58;;;;;;;10.52;4.72;;;13.00;99.90;;;;;;5047221;28;20106;-65
2023/04/15 10:17:28;;;;;;;9.70;4.82;;;12.90;99.90;;;;;;5051270;28;20535;-65
2023/04/15 10:19:54;;;;;;;9.90;5.05;;;12.90;99.90;;;;;;5044981;28;20671;-65
2023/04/15 10:22:22;;;;;;;8.77;4.38;;;12.80;99.90;;;;;;5045427;28;20037;-66
2023/04/15 10:24:49;;;;;;;6.85;4.35;;;12.70;99.90;;;;;;5047600;28;20113;-65
2023/04/15 10:27:16;;;;;;;11.73;5.03;;;12.70;99.90;;;;;;5047123;28;20035;-65
2023/04/15 10:29:42;;;;;;;9.02;5.30;;;12.70;99.90;;;;;;5042732;28;20027;-68
2023/04/15 10:32:09;;;;;;;11.23;4.93;;;12.70;99.90;;;;;;5045713;28;20035;-65
2023/04/15 10:34:36;;;;;;;8.60;4.68;;;12.60;99.90;;;;;;5041362;28;20037;-68
2023/04/15 10:37:02;;;;;;;11.60;5.60;;;12.50;99.90;;;;;;5048044;28;20112;-66
2023/04/15 10:39:41;;;;;;;11.80;5.95;;;12.50;99.90;;;;;;5046949;28;20172;-65
2023/04/15 10:42:08;;;;;;;13.32;5.43;;;12.40;99.90;;;;;;5049253;28;20036;-65
2023/04/15 10:44:37;;;;;;;10.98;5.85;;;12.40;99.90;;;;;;5041844;28;20033;-66
2023/04/15 10:47:30;;;;;;;11.48;5.05;;;12.30;99.90;;;;;;5038740;28;20591;-67
2023/04/15 10:49:57;;;;;;;10.68;5.63;;;12.30;99.90;;;;;;5038067;28;20037;-65
2023/04/15 10:52:26;;;;;;;10.27;5.60;;;12.30;99.90;;;;;;5041215;28;20409;-64
2023/04/15 10:55:15;;;;;;;10.18;5.22;;;12.30;99.90;;;;;;5039360;28;20417;-64
2023/04/15 10:57:42;;;;;;;11.05;6.20;;;12.30;99.90;;;;;;5051769;28;20032;-65
2023/04/15 11:00:07;;;;;;;11.80;5.68;;;12.40;99.90;;;;;;5043881;28;20847;-64
2023/04/15 11:02:55;;;;;;;13.07;5.88;;;12.40;99.90;;;;;;5064643;28;20020;-66
2023/04/15 11:05:40;;;;;;;11.23;5.05;;;12.40;99.90;;;;;;5041314;28;20393;-65
2023/04/15 11:08:07;;;;;;;13.07;6.45;;;12.40;99.90;;;;;;5018946;22;20050;-64
2023/04/15 11:10:32;;;;;;;15.38;6.32;;;12.50;99.90;;;;;;4988191;28;20026;-65
2023/04/15 11:13:00;;;;;;;14.00;6.78;;;12.40;99.90;;;;;;4986912;28;20034;-66
2023/04/15 11:15:29;;;;;;;12.57;6.10;;;12.50;99.90;;;;;;4989868;28;20054;-64
2023/04/15 11:17:56;;;;;;;11.52;5.75;;;12.40;99.90;;;;;;4986550;28;20114;-64
2023/04/15 11:20:22;;;;;;;12.55;6.03;;;12.40;99.90;;;;;;4988753;28;20034;-65
2023/04/15 11:22:52;;;;;;;10.60;5.95;;;12.30;99.90;;;;;;4987713;28;20057;-69
2023/04/15 11:25:24;;;;;;;;;;;12.40;99.90;;;;;;4979326;28;20444;-66
2023/04/15 11:27:52;;;;;;;13.77;5.88;;;12.40;99.90;;;;;;4980529;28;19925;-65
2023/04/15 11:30:23;;;;;;;12.15;5.55;;;12.40;99.90;;;;;;4987973;28;20026;-65
2023/04/15 11:32:51;;;;;;;11.73;5.65;;;12.50;99.90;;;;;;4988189;28;20125;-66
2023/04/15 11:35:18;;;;;;;11.85;6.05;;;12.60;99.90;;;;;;4990629;28;20037;-65
2023/04/15 11:37:45;;;;;;;10.23;5.60;;;12.50;99.90;;;;;;4990460;28;20038;-64
2023/04/15 11:40:10;;;;;;;9.77;5.55;;;12.50;99.90;;;;;;4988447;28;20378;-64
2023/04/15 11:42:36;;;;;;;13.25;5.53;;;12.50;99.90;;;;;;4989686;28;20034;-64
2023/04/15 11:45:15;;;;;;;10.48;4.95;;;12.60;99.90;;;;;;4989272;28;20031;-66
2023/04/15 11:47:41;;;;;;;11.80;5.05;;;12.60;99.90;;;;;;4990462;28;20023;-64
2023/04/15 11:50:21;;;;;;;9.20;4.65;;;12.70;99.90;;;;;;4988057;28;20018;-64
2023/04/15 11:53:01;;;;;;;6.65;4.07;;;12.70;99.90;;;;;;4985077;28;20539;-66
2023/04/15 11:55:27;;;;;;;11.80;5.00;;;12.80;99.90;;;;;;4990103;28;20034;-64
2023/04/15 11:58:12;;;;;;;7.78;4.05;;;12.90;99.90;;;;;;4989387;28;20043;-65
2023/04/15 12:00:40;;;;;;;10.75;4.45;;;13.00;99.90;;;;;;4989072;28;20053;-64
2023/04/15 12:03:42;;;;;;;10.27;4.53;;;13.10;99.90;;;;;;4989435;28;20022;-66
2023/04/15 12:06:35;;;;;;;12.57;4.60;;;13.50;99.90;;;;;;4989133;28;20034;-64
2023/04/15 12:09:06;;;;;;;7.50;4.15;;;13.80;99.90;;;;;;4969235;28;20055;-65
2023/04/15 12:11:40;;;;;;;;;;;13.90;99.90;;;;;;4980486;28;20019;-65
2023/04/15 12:14:28;;;;;;;9.30;4.25;;;14.00;99.90;;;;;;4987949;28;19910;-65
2023/04/15 12:17:04;;;;;;;6.30;3.65;;;14.20;99.90;;;;;;4981994;28;20030;-66
2023/04/15 12:19:34;;;;;;;8.02;3.58;;;14.10;99.90;;;;;;4983765;28;20070;-66
2023/04/15 12:22:02;;;;;;;6.30;3.15;;;13.90;99.90;;;;;;4981531;28;20110;-65
2023/04/15 12:24:31;;;;;;;6.13;2.88;;;13.70;99.90;;;;;;4982987;28;20475;-66
2023/04/15 12:27:05;;;;;;;6.28;2.95;;;13.40;99.90;;;;;;4979582;28;20037;-65
2023/04/15 12:29:31;;;;;;;6.20;2.30;;;13.00;99.90;;;;;;4986390;28;20066;-69
2023/04/15 12:32:04;;;;;;;5.93;2.40;;;12.70;99.90;;;;;;4982811;28;20034;-64
2023/04/15 12:34:32;;;;;;;5.53;2.60;;;12.50;99.90;;;;;;4991923;28;20105;-65
2023/04/15 12:36:59;;;;;;;5.30;2.53;;;12.40;99.90;;;;;;4987970;28;20058;-65
2023/04/15 12:39:27;;;;;;;6.90;2.05;;;12.20;99.90;;;;;;4984704;28;20061;-65
2023/04/15 12:41:53;;;;;;;5.53;2.40;;;12.10;99.90;;;;;;4987459;28;20053;-66
2023/04/15 12:44:21;;;;;;;5.22;2.28;;;11.90;99.90;;;;;;4983407;28;20053;-65
2023/04/15 12:46:46;;;;;;;5.90;2.20;;;11.90;99.90;;;;;;4988088;28;20458;-65
2023/04/15 12:49:14;;;;;;;3.40;1.83;;;11.80;99.90;;;;;;4983988;28;20034;-64